createdAt,value
2022-10-21T00:01:12.566Z,8.48
2022-10-21T00:03:41.170Z,7.30
2022-10-21T00:06:09.877Z,7.82
2022-10-21T00:08:39.284Z,7.22
2022-10-21T00:11:09.135Z,8.25
2022-10-21T00:13:39.831Z,7.60
2022-10-21T00:16:11.842Z,7.32
2022-10-21T00:18:42.430Z,8.30
2022-10-21T00:21:13.183Z,7.55
2022-10-21T00:23:42.500Z,8.48
2022-10-21T00:26:11.243Z,6.60
2022-10-21T00:28:40.138Z,7.43
2022-10-21T00:31:10.597Z,9.18
2022-10-21T00:33:39.280Z,7.25
2022-10-21T00:36:09.008Z,7.93
2022-10-21T00:38:37.700Z,6.72
2022-10-21T00:41:06.341Z,7.35
2022-10-21T00:43:34.825Z,8.52
2022-10-21T00:46:04.766Z,6.82
2022-10-21T00:48:36.969Z,7.85
2022-10-21T00:51:07.281Z,7.95
2022-10-21T00:53:36.740Z,6.93
2022-10-21T00:56:09.939Z,8.35
2022-10-21T00:58:41.199Z,7.10
2022-10-21T01:01:09.876Z,6.85
2022-10-21T01:03:40.055Z,7.53
2022-10-21T01:06:10.856Z,8.18
2022-10-21T01:08:39.458Z,7.80
2022-10-21T01:11:13.044Z,6.85
2022-10-21T01:13:52.230Z,7.88
2022-10-21T01:16:24.028Z,7.45
2022-10-21T01:18:58.951Z,8.82
2022-10-21T01:21:32.941Z,7.15
2022-10-21T01:24:49.283Z,8.27
2022-10-21T01:27:25.776Z,9.57
2022-10-21T01:30:33.766Z,9.45
2022-10-21T01:33:13.787Z,9.65
2022-10-21T01:35:46.481Z,9.70
2022-10-21T01:38:21.199Z,7.47
2022-10-21T01:40:56.045Z,9.55
2022-10-21T01:43:31.615Z,8.70
2022-10-21T01:46:03.205Z,7.53
2022-10-21T01:48:33.787Z,9.25
2022-10-21T01:51:04.696Z,10.88
2022-10-21T01:53:36.467Z,9.70
2022-10-21T01:56:05.529Z,10.60
2022-10-21T01:58:36.106Z,11.40
2022-10-21T02:01:06.997Z,11.88
2022-10-21T02:03:38.470Z,12.45
2022-10-21T02:06:07.508Z,13.05
2022-10-21T02:08:36.022Z,10.25
2022-10-21T02:11:07.694Z,9.70
2022-10-21T02:13:39.077Z,9.43
2022-10-21T02:16:11.613Z,10.60
2022-10-21T02:18:40.337Z,11.52
2022-10-21T02:21:11.934Z,8.90
2022-10-21T02:23:43.940Z,10.60
2022-10-21T02:26:12.517Z,10.15
2022-10-21T02:31:37.885Z,10.45
2022-10-21T02:34:12.833Z,11.10
2022-10-21T02:36:48.537Z,10.57
2022-10-21T02:39:20.924Z,9.98
2022-10-21T02:41:49.678Z,12.45
2022-10-21T02:44:18.204Z,14.98
2022-10-21T02:46:48.896Z,9.93
2022-10-21T02:49:17.443Z,10.40
2022-10-21T02:51:45.919Z,9.30
2022-10-21T02:54:14.558Z,11.27
2022-10-21T02:56:43.215Z,10.52
2022-10-21T02:59:12.014Z,11.57
2022-10-21T03:01:40.519Z,10.82
2022-10-21T03:04:10.495Z,11.02
2022-10-21T03:06:39.335Z,11.00
2022-10-21T03:09:08.007Z,10.98
2022-10-21T03:11:36.526Z,11.40
2022-10-21T03:14:05.115Z,12.70
2022-10-21T03:16:33.586Z,10.25
2022-10-21T03:19:02.110Z,10.98
2022-10-21T03:21:31.954Z,12.15
2022-10-21T03:24:00.425Z,12.35
2022-10-21T03:26:28.908Z,11.55
2022-10-21T03:28:57.501Z,14.35
2022-10-21T03:31:26.033Z,13.40
2022-10-21T03:33:54.527Z,11.73
2022-10-21T03:36:23.198Z,13.27
2022-10-21T03:38:53.058Z,10.77
2022-10-21T03:41:21.671Z,12.38
2022-10-21T03:43:50.595Z,12.32
2022-10-21T03:46:19.161Z,11.35
2022-10-21T03:48:47.681Z,12.20
2022-10-21T03:51:16.253Z,14.25
2022-10-21T03:53:44.760Z,13.25
2022-10-21T03:56:14.843Z,13.57
2022-10-21T03:58:43.369Z,12.18
2022-10-21T04:01:13.957Z,10.95
2022-10-21T04:03:42.482Z,12.57
2022-10-21T04:06:11.109Z,10.88
2022-10-21T04:08:39.718Z,11.07
2022-10-21T04:11:08.596Z,10.55
2022-10-21T04:13:38.456Z,11.40
2022-10-21T04:16:09.094Z,11.30
2022-10-21T04:18:37.582Z,10.10
2022-10-21T04:21:06.901Z,10.30
2022-10-21T04:23:35.441Z,11.25
2022-10-21T04:26:04.035Z,11.13
2022-10-21T04:28:32.689Z,12.23
2022-10-21T04:31:02.784Z,10.65
2022-10-21T04:33:31.292Z,10.65
2022-10-21T04:35:59.961Z,11.98
2022-10-21T04:38:29.298Z,8.63
2022-10-21T04:40:58.944Z,10.55
2022-10-21T04:43:27.676Z,10.88
2022-10-21T04:45:56.197Z,11.32
2022-10-21T04:48:26.172Z,13.65
2022-10-21T04:50:54.860Z,12.13
2022-10-21T04:53:23.759Z,9.73
2022-10-21T04:55:53.230Z,10.57
2022-10-21T04:58:22.442Z,11.93
2022-10-21T05:00:51.439Z,13.05
2022-10-21T05:03:20.070Z,9.07
2022-10-21T05:05:53.995Z,12.23
2022-10-21T05:08:22.548Z,10.80
2022-10-21T05:10:51.041Z,11.40
2022-10-21T05:13:19.697Z,10.90
2022-10-21T05:15:48.204Z,8.70
2022-10-21T05:18:16.863Z,9.18
2022-10-21T05:20:51.215Z,12.95
2022-10-21T05:23:22.408Z,8.70
2022-10-21T05:25:51.685Z,10.85
2022-10-21T05:28:20.413Z,10.38
2022-10-21T05:30:49.489Z,11.38
2022-10-21T05:33:18.029Z,10.65
2022-10-21T05:35:46.541Z,10.32
2022-10-21T05:38:15.094Z,15.70
2022-10-21T05:40:45.512Z,10.88
2022-10-21T05:43:13.973Z,11.35
2022-10-21T05:45:42.522Z,11.07
2022-10-21T05:48:14.540Z,12.80
2022-10-21T05:50:46.055Z,16.52
2022-10-21T05:53:14.901Z,12.70
2022-10-21T05:55:44.962Z,16.00
2022-10-21T05:58:13.486Z,11.35
2022-10-21T06:00:42.500Z,11.43
2022-10-21T06:03:11.053Z,13.85
2022-10-21T06:05:39.702Z,12.02
2022-10-21T06:08:08.231Z,11.00
2022-10-21T06:10:36.756Z,11.75
2022-10-21T06:13:06.614Z,36.47
2022-10-21T06:15:35.338Z,16.75
2022-10-21T06:18:03.891Z,52.33
2022-10-21T06:20:32.437Z,32.40
2022-10-21T06:23:01.205Z,24.30
2022-10-21T06:25:29.846Z,23.83
2022-10-21T06:27:58.304Z,21.60
2022-10-21T06:30:28.532Z,24.08
2022-10-21T06:32:57.021Z,27.73
2022-10-21T06:35:25.597Z,24.45
2022-10-21T06:37:54.231Z,25.77
2022-10-21T06:40:23.010Z,20.98
2022-10-21T06:42:51.968Z,19.10
2022-10-21T06:45:20.770Z,17.25
2022-10-21T06:47:50.698Z,16.15
2022-10-21T06:50:19.491Z,19.85
2022-10-21T06:52:48.961Z,20.58
2022-10-21T06:55:17.812Z,16.67
2022-10-21T06:57:46.324Z,21.15
2022-10-21T07:00:15.827Z,21.33
2022-10-21T07:02:44.565Z,17.75
2022-10-21T07:05:14.500Z,16.98
2022-10-21T07:07:43.009Z,15.75
2022-10-21T07:10:11.655Z,15.98
2022-10-21T07:12:40.354Z,18.27
2022-10-21T07:15:10.272Z,18.52
2022-10-21T07:17:39.064Z,14.52
2022-10-21T07:20:08.921Z,15.80
2022-10-21T07:22:38.732Z,17.98
2022-10-21T07:25:08.482Z,14.98
2022-10-21T07:27:37.568Z,14.48
2022-10-21T07:30:07.331Z,15.02
2022-10-21T07:32:35.916Z,16.95
2022-10-21T07:35:04.527Z,13.75
2022-10-21T07:37:33.043Z,17.17
2022-10-21T07:40:03.069Z,15.00
2022-10-21T07:42:31.544Z,15.38
2022-10-21T07:45:01.681Z,12.65
2022-10-21T07:47:30.331Z,13.30
2022-10-21T07:49:58.756Z,13.57
2022-10-21T07:52:28.151Z,12.98
2022-10-21T07:54:56.749Z,14.93
2022-10-21T07:57:26.896Z,16.80
2022-10-21T07:59:55.530Z,12.35
2022-10-21T08:02:24.909Z,13.43
2022-10-21T08:04:56.119Z,16.00
2022-10-21T08:07:24.831Z,17.10
2022-10-21T08:09:53.377Z,14.27
2022-10-21T08:12:22.098Z,15.13
2022-10-21T08:14:52.039Z,16.75
2022-10-21T08:17:22.461Z,13.13
2022-10-21T08:19:51.196Z,11.20
2022-10-21T08:22:19.942Z,12.05
2022-10-21T08:24:48.468Z,11.10
2022-10-21T08:27:17.043Z,12.82
2022-10-21T08:29:45.671Z,16.33
2022-10-21T08:32:15.970Z,15.75
2022-10-21T08:34:45.146Z,16.40
2022-10-21T08:37:13.685Z,21.63
2022-10-21T08:39:42.220Z,24.17
2022-10-21T08:42:13.544Z,30.85
2022-10-21T08:44:49.384Z,33.25
2022-10-21T08:47:31.383Z,25.25
2022-10-21T08:50:05.203Z,27.52
2022-10-21T08:52:41.624Z,31.42
2022-10-21T08:55:17.370Z,28.73
2022-10-21T08:57:49.372Z,33.90
2022-10-21T09:00:20.049Z,33.10
2022-10-21T09:03:05.900Z,26.60
2022-10-21T09:06:04.013Z,23.92
2022-10-21T09:08:36.965Z,24.45
2022-10-21T09:11:11.244Z,26.38
2022-10-21T09:14:16.034Z,21.90
2022-10-21T09:16:50.157Z,24.33
2022-10-21T09:19:32.616Z,24.60
2022-10-21T09:22:33.924Z,24.23
2022-10-21T09:25:01.581Z,21.15
2022-10-21T09:27:32.390Z,22.17
2022-10-21T09:30:08.606Z,20.27
2022-10-21T09:32:39.230Z,21.35
2022-10-21T09:35:15.812Z,22.35
2022-10-21T09:37:47.236Z,20.00
2022-10-21T09:40:18.731Z,23.17
2022-10-21T09:42:48.481Z,24.85
2022-10-21T09:45:24.963Z,21.60
2022-10-21T09:47:58.946Z,21.08
2022-10-21T09:50:29.589Z,21.73
2022-10-21T09:53:06.382Z,19.50
2022-10-21T09:55:34.889Z,19.50
2022-10-21T09:58:04.070Z,18.45
2022-10-21T10:00:48.214Z,19.00
2022-10-21T10:03:34.839Z,16.05
2022-10-21T10:06:05.440Z,17.13
2022-10-21T10:08:37.876Z,16.60
2022-10-21T10:11:15.164Z,19.30
2022-10-21T10:13:45.454Z,17.63
2022-10-21T10:16:18.614Z,14.27
2022-10-21T10:18:47.162Z,19.33
2022-10-21T10:21:17.962Z,21.05
2022-10-21T10:23:48.836Z,16.88
2022-10-21T10:26:27.504Z,19.27
2022-10-21T10:28:57.715Z,16.90
2022-10-21T10:31:32.709Z,16.75
2022-10-21T10:34:04.120Z,18.67
2022-10-21T10:36:37.547Z,17.73
2022-10-21T10:39:08.822Z,15.20
2022-10-21T10:41:39.824Z,19.38
2022-10-21T10:44:19.919Z,16.20
2022-10-21T10:49:22.764Z,16.42
2022-10-21T10:52:16.969Z,16.45
2022-10-21T10:54:45.531Z,17.90
2022-10-21T10:57:16.721Z,16.80
2022-10-21T10:59:46.345Z,16.20
2022-10-21T11:02:23.718Z,16.45
2022-10-21T11:05:23.577Z,16.85
2022-10-21T11:07:54.380Z,14.75
2022-10-21T11:10:32.989Z,15.73
2022-10-21T11:13:02.217Z,15.95
2022-10-21T11:15:56.523Z,13.30
2022-10-21T11:18:30.488Z,20.73
2022-10-21T11:21:11.573Z,14.60
2022-10-21T11:24:00.052Z,15.07
2022-10-21T11:26:34.508Z,13.27
2022-10-21T11:29:08.926Z,13.77
2022-10-21T11:31:59.617Z,13.70
2022-10-21T11:34:35.857Z,15.57
2022-10-21T11:37:16.945Z,14.73
2022-10-21T11:39:51.276Z,17.08
2022-10-21T11:42:24.269Z,16.33
2022-10-21T11:45:07.744Z,14.45
2022-10-21T11:47:41.391Z,14.43
2022-10-21T11:50:16.584Z,17.23
2022-10-21T11:52:50.453Z,13.63
2022-10-21T11:55:40.440Z,11.90
2022-10-21T11:58:27.314Z,14.80
2022-10-21T12:01:00.997Z,15.32
2022-10-21T12:03:45.302Z,14.95
2022-10-21T12:06:20.314Z,13.13
2022-10-21T12:08:54.055Z,11.90
2022-10-21T12:11:26.515Z,11.60
2022-10-21T12:13:57.216Z,14.13
2022-10-21T12:16:28.214Z,13.55
2022-10-21T12:18:59.311Z,13.80
2022-10-21T12:21:31.513Z,14.45
2022-10-21T12:24:26.432Z,12.98
2022-10-21T12:27:00.768Z,12.93
2022-10-21T12:29:44.762Z,15.38
2022-10-21T12:32:20.522Z,13.32
2022-10-21T12:34:49.506Z,13.15
2022-10-21T12:38:06.893Z,15.48
2022-10-21T12:40:39.287Z,14.38
2022-10-21T12:43:22.594Z,14.82
2022-10-21T12:46:05.521Z,14.32
2022-10-21T12:48:36.868Z,15.60
2022-10-21T12:51:07.714Z,12.55
2022-10-21T12:53:40.102Z,14.50
2022-10-21T12:56:09.080Z,14.20
2022-10-21T12:58:41.734Z,14.32
2022-10-21T13:01:43.271Z,12.75
2022-10-21T13:04:47.335Z,12.95
2022-10-21T13:07:38.336Z,13.68
2022-10-21T13:10:17.359Z,12.45
2022-10-21T13:12:47.552Z,17.75
2022-10-21T13:15:46.527Z,20.30
2022-10-21T13:18:14.972Z,16.40
2022-10-21T13:20:49.989Z,11.80
2022-10-21T13:23:48.143Z,11.15
2022-10-21T13:26:21.544Z,12.93
2022-10-21T13:29:10.340Z,12.60
2022-10-21T13:31:42.716Z,11.45
2022-10-21T13:34:27.534Z,10.35
2022-10-21T13:36:56.194Z,12.00
2022-10-21T13:39:28.686Z,12.68
2022-10-21T13:42:02.703Z,12.85
2022-10-21T13:44:35.604Z,12.15
2022-10-21T13:47:38.703Z,14.85
2022-10-21T13:50:16.997Z,9.93
2022-10-21T13:52:45.611Z,13.15
2022-10-21T13:55:21.025Z,11.32
2022-10-21T13:57:50.187Z,9.75
2022-10-21T14:00:22.147Z,13.77
2022-10-21T14:02:53.909Z,13.68
2022-10-21T14:05:37.073Z,12.45
2022-10-21T14:08:06.909Z,13.52
2022-10-21T14:10:35.500Z,18.00
2022-10-21T14:13:05.713Z,15.07
2022-10-21T14:15:40.963Z,11.38
2022-10-21T14:18:24.455Z,15.57
2022-10-21T14:20:56.007Z,11.70
2022-10-21T14:23:24.539Z,12.90
2022-10-21T14:25:54.156Z,14.52
2022-10-21T14:28:22.707Z,15.73
2022-10-21T14:30:51.350Z,12.45
2022-10-21T14:33:25.632Z,15.85
2022-10-21T14:36:15.571Z,11.80
2022-10-21T14:38:51.736Z,13.65
2022-10-21T14:41:22.754Z,14.13
2022-10-21T14:43:52.726Z,13.35
2022-10-21T14:46:21.367Z,16.40
2022-10-21T14:48:54.451Z,11.95
2022-10-21T14:51:23.660Z,11.73
2022-10-21T14:53:55.998Z,11.55
2022-10-21T14:56:30.542Z,16.08
2022-10-21T14:59:00.329Z,9.52
2022-10-21T15:01:29.242Z,14.90
2022-10-21T15:04:00.303Z,14.18
2022-10-21T15:06:29.946Z,14.93
2022-10-21T15:09:06.897Z,12.30
2022-10-21T15:11:41.727Z,16.45
2022-10-21T15:14:34.883Z,10.50
2022-10-21T15:17:05.207Z,13.77
2022-10-21T15:19:48.016Z,13.48
2022-10-21T15:22:27.402Z,16.30
2022-10-21T15:24:56.918Z,11.52
2022-10-21T15:27:29.256Z,18.52
2022-10-21T15:29:57.848Z,16.50
2022-10-21T15:32:30.368Z,13.98
2022-10-21T15:35:00.537Z,13.63
2022-10-21T15:37:29.014Z,11.32
2022-10-21T15:39:57.919Z,14.13
2022-10-21T15:42:26.490Z,14.27
2022-10-21T15:44:55.037Z,11.40
2022-10-21T15:47:25.022Z,13.65
2022-10-21T15:49:55.988Z,15.68
2022-10-21T15:52:26.047Z,13.10
2022-10-21T15:54:55.696Z,13.75
2022-10-21T15:57:24.902Z,13.88
2022-10-21T15:59:53.373Z,13.60
2022-10-21T16:02:21.880Z,13.52
2022-10-21T16:04:53.150Z,11.98
2022-10-21T16:07:23.555Z,13.02
2022-10-21T16:09:53.420Z,10.05
2022-10-21T16:12:23.313Z,10.90
2022-10-21T16:14:51.829Z,15.70
2022-10-21T16:17:20.480Z,12.43
2022-10-21T16:19:49.058Z,12.68
2022-10-21T16:22:21.082Z,15.13
2022-10-21T16:24:49.568Z,12.20
2022-10-21T16:27:31.246Z,12.20
2022-10-21T16:30:16.984Z,11.45
2022-10-21T16:32:47.810Z,13.02
2022-10-21T16:35:17.035Z,9.13
2022-10-21T16:37:45.750Z,11.25
2022-10-21T16:40:20.627Z,14.50
2022-10-21T16:42:50.998Z,10.45
2022-10-21T16:45:20.133Z,14.27
2022-10-21T16:47:52.667Z,12.60
2022-10-21T16:50:22.886Z,11.80
2022-10-21T16:52:51.484Z,13.07
2022-10-21T16:55:20.514Z,12.80
2022-10-21T16:57:50.357Z,12.23
2022-10-21T17:00:19.354Z,10.52
2022-10-21T17:02:48.890Z,12.23
2022-10-21T17:05:17.579Z,12.02
2022-10-21T17:07:46.075Z,11.48
2022-10-21T17:10:14.717Z,9.77
2022-10-21T17:12:43.773Z,13.48
2022-10-21T17:15:14.666Z,13.98
2022-10-21T17:17:43.234Z,17.55
2022-10-21T17:20:12.803Z,20.70
2022-10-21T17:22:41.358Z,25.23
2022-10-21T17:25:11.854Z,28.73
2022-10-21T17:27:40.786Z,34.80
2022-10-21T17:30:12.301Z,38.63
2022-10-21T17:35:18.812Z,43.72
2022-10-21T17:37:47.832Z,42.65
2022-10-21T17:40:18.102Z,50.45
2022-10-21T17:42:46.743Z,50.13
2022-10-21T17:45:15.577Z,53.15
2022-10-21T17:47:45.569Z,52.08
2022-10-21T17:50:14.248Z,50.97
2022-10-21T17:52:43.654Z,52.42
2022-10-21T17:55:13.187Z,50.90
2022-10-21T17:57:41.859Z,50.80
2022-10-21T18:00:11.407Z,47.10
2022-10-21T18:02:40.241Z,48.45
2022-10-21T18:05:11.442Z,48.50
2022-10-21T18:07:40.327Z,46.65
2022-10-21T18:10:10.364Z,47.35
2022-10-21T18:12:39.288Z,46.58
2022-10-21T18:15:08.996Z,46.13
2022-10-21T18:17:40.129Z,45.65
2022-10-21T18:20:11.825Z,43.95
2022-10-21T18:22:40.576Z,43.63
2022-10-21T18:25:10.463Z,42.97
2022-10-21T18:27:40.285Z,44.70
2022-10-21T18:30:10.353Z,41.92
2022-10-21T18:32:39.255Z,42.15
2022-10-21T18:35:10.783Z,41.30
2022-10-21T18:37:39.973Z,39.75
2022-10-21T18:40:11.062Z,39.75
2022-10-21T18:42:39.536Z,39.53
2022-10-21T18:45:09.182Z,40.50
2022-10-21T18:47:37.931Z,38.58
2022-10-21T18:50:11.047Z,38.78
2022-10-21T18:52:39.608Z,39.90
2022-10-21T18:55:08.987Z,39.00
2022-10-21T18:57:37.721Z,39.13
2022-10-21T19:00:08.461Z,39.42
2022-10-21T19:02:36.978Z,37.90
2022-10-21T19:05:06.606Z,37.15
2022-10-21T19:07:36.661Z,36.38
2022-10-21T19:10:06.027Z,37.00
2022-10-21T19:12:34.605Z,35.47
2022-10-21T19:15:03.097Z,37.10
2022-10-21T19:17:32.370Z,35.72
2022-10-21T19:20:03.265Z,35.33
2022-10-21T19:22:31.948Z,35.47
2022-10-21T19:25:01.912Z,34.75
2022-10-21T19:27:30.507Z,35.15
2022-10-21T19:29:59.191Z,35.13
2022-10-21T19:32:27.721Z,33.88
2022-10-21T19:34:56.242Z,34.13
2022-10-21T19:37:24.867Z,32.42
2022-10-21T19:39:53.992Z,32.92
2022-10-21T19:42:24.264Z,34.33
2022-10-21T19:44:52.907Z,33.47
2022-10-21T19:47:21.540Z,33.42
2022-10-21T19:49:50.186Z,34.38
2022-10-21T19:52:18.682Z,32.55
2022-10-21T19:54:47.385Z,33.22
2022-10-21T19:57:17.586Z,34.05
2022-10-21T19:59:49.029Z,33.92
2022-10-21T20:02:17.509Z,33.10
2022-10-21T20:04:46.273Z,32.60
2022-10-21T20:07:15.181Z,33.03
2022-10-21T20:09:43.974Z,33.60
2022-10-21T20:12:12.691Z,32.38
2022-10-21T20:14:41.364Z,32.03
2022-10-21T20:17:14.892Z,32.05
2022-10-21T20:19:48.509Z,31.27
2022-10-21T20:22:17.197Z,32.58
2022-10-21T20:24:46.490Z,31.85
2022-10-21T20:27:15.223Z,31.00
2022-10-21T20:29:43.749Z,30.38
2022-10-21T20:32:13.614Z,30.52
2022-10-21T20:34:43.492Z,30.20
2022-10-21T20:37:12.166Z,28.60
2022-10-21T20:39:41.035Z,29.35
2022-10-21T20:42:09.569Z,29.23
2022-10-21T20:44:38.362Z,28.42
2022-10-21T20:47:06.936Z,28.35
2022-10-21T20:49:36.802Z,28.20
2022-10-21T20:52:05.596Z,27.58
2022-10-21T20:54:34.315Z,27.27
2022-10-21T20:57:02.857Z,26.15
2022-10-21T20:59:31.376Z,28.15
2022-10-21T21:01:59.878Z,25.95
2022-10-21T21:04:28.331Z,26.98
2022-10-21T21:06:58.197Z,26.45
2022-10-21T21:09:44.022Z,25.98
2022-10-21T21:12:15.673Z,26.05
2022-10-21T21:14:44.138Z,26.80
2022-10-21T21:17:12.686Z,26.42
2022-10-21T21:19:41.409Z,26.63
2022-10-21T21:22:11.366Z,26.02
2022-10-21T21:24:39.980Z,24.58
2022-10-21T21:27:08.506Z,25.08
2022-10-21T21:29:37.225Z,24.77
2022-10-21T21:32:06.476Z,25.33
2022-10-21T21:34:35.254Z,23.95
2022-10-21T21:37:03.744Z,24.58
2022-10-21T21:39:33.769Z,24.23
2022-10-21T21:42:02.320Z,23.23
2022-10-21T21:44:31.070Z,23.80
2022-10-21T21:46:59.597Z,24.17
2022-10-21T21:49:28.209Z,24.10
2022-10-21T21:51:56.761Z,24.17
2022-10-21T21:54:25.225Z,23.50
2022-10-21T21:57:10.334Z,23.30
2022-10-21T21:59:43.532Z,23.23
2022-10-21T22:02:12.392Z,24.50
2022-10-21T22:04:40.908Z,23.15
2022-10-21T22:07:09.717Z,23.38
2022-10-21T22:09:38.263Z,22.40
2022-10-21T22:12:10.764Z,23.13
2022-10-21T22:14:41.522Z,22.55
2022-10-21T22:17:10.140Z,21.48
2022-10-21T22:19:38.663Z,21.85
2022-10-21T22:22:07.210Z,21.95
2022-10-21T22:24:35.844Z,21.50
2022-10-21T22:27:04.432Z,20.52
2022-10-21T22:29:34.325Z,21.80
2022-10-21T22:32:03.035Z,21.30
2022-10-21T22:34:31.717Z,21.35
2022-10-21T22:37:02.211Z,22.02
2022-10-21T22:39:30.752Z,21.48
2022-10-21T22:41:59.186Z,20.55
2022-10-21T22:44:27.846Z,21.48
2022-10-21T22:46:57.698Z,19.88
2022-10-21T22:49:26.262Z,20.73
2022-10-21T22:51:54.858Z,20.90
2022-10-21T22:54:46.528Z,20.08
2022-10-21T22:57:11.990Z,20.05
2022-10-21T22:59:40.598Z,19.35
2022-10-21T23:02:10.516Z,19.88
2022-10-21T23:04:39.024Z,19.27
2022-10-21T23:07:07.547Z,20.25
2022-10-21T23:09:36.189Z,19.30
2022-10-21T23:12:05.039Z,18.95
2022-10-21T23:14:33.698Z,18.85
2022-10-21T23:17:02.225Z,19.48
2022-10-21T23:19:32.096Z,18.90
2022-10-21T23:22:00.641Z,18.48
2022-10-21T23:24:29.105Z,18.42
2022-10-21T23:27:00.563Z,17.98
2022-10-21T23:29:30.084Z,17.50
2022-10-21T23:31:58.577Z,17.13
2022-10-21T23:34:27.209Z,18.20
2022-10-21T23:36:58.934Z,17.67
2022-10-21T23:39:27.446Z,17.67
2022-10-21T23:41:56.013Z,17.65
2022-10-21T23:44:24.516Z,17.58
2022-10-21T23:46:52.974Z,17.27
2022-10-21T23:49:21.560Z,16.73
2022-10-21T23:51:50.026Z,16.70
2022-10-21T23:54:19.795Z,16.75
2022-10-21T23:56:48.274Z,16.27
2022-10-21T23:59:16.814Z,16.38
